Time;durP1;ratioP1;P1;durP2;ratioP2;P2;SDS_P1;SDS_P2;PMS_P1;PMS_P2;Temp;Humidity;BMP_temperature;BMP_pressure;BME280_temperature;BME280_humidity;BME280_pressure;Samples;Min_cycle;Max_cycle;Signal;HPM_P1;HPM_P2
2022/07/16 00:01:26;;;;;;;4.63;4.23;;;17.40;80.20;;;;;;5017397;28;20186;-84
2022/07/16 00:04:00;;;;;;;4.43;4.03;;;17.40;80.30;;;;;;5012072;28;20187;-85
2022/07/16 00:06:27;;;;;;;6.00;5.00;;;17.40;81.70;;;;;;5017297;28;20213;-85
2022/07/16 00:08:53;;;;;;;4.88;4.47;;;17.20;81.60;;;;;;5012673;28;20186;-85
2022/07/16 00:11:20;;;;;;;4.65;4.25;;;17.60;81.80;;;;;;5015831;28;20553;-85
2022/07/16 00:13:46;;;;;;;4.40;4.00;;;17.40;81.80;;;;;;5019463;28;20190;-85
2022/07/16 00:16:12;;;;;;;4.60;4.20;;;17.50;82.80;;;;;;5019101;28;20215;-85
2022/07/16 00:21:23;;;;;;;4.70;4.05;;;17.00;83.30;;;;;;5008536;28;20440;-85
2022/07/16 00:23:48;;;;;;;4.20;3.90;;;17.00;83.40;;;;;;5011467;28;20726;-85
2022/07/16 00:26:14;;;;;;;4.63;4.10;;;16.90;84.50;;;;;;5012764;28;20286;-85
2022/07/16 00:28:40;;;;;;;6.13;4.93;;;17.10;86.40;;;;;;5018334;28;20205;-85
2022/07/16 00:31:05;;;;;;;4.53;4.13;;;17.30;86.20;;;;;;5014479;28;20175;-85
2022/07/16 00:33:31;;;;;;;4.50;4.07;;;16.90;84.90;;;;;;5015851;28;20205;-85
2022/07/16 00:35:56;;;;;;;5.77;4.83;;;16.80;85.00;;;;;;5011232;28;20191;-84
2022/07/16 00:38:22;;;;;;;4.87;4.27;;;17.10;85.70;;;;;;5012096;28;20667;-86
2022/07/16 00:40:48;;;;;;;4.33;3.93;;;16.20;84.70;;;;;;5013896;28;20217;-85
2022/07/16 00:43:15;;;;;;;4.23;3.83;;;16.70;85.90;;;;;;5013298;28;20186;-85
2022/07/16 00:45:41;;;;;;;4.13;3.83;;;16.60;86.10;;;;;;5011917;28;20214;-85
2022/07/16 00:48:07;;;;;;;5.00;4.60;;;16.90;87.60;;;;;;5013192;28;20289;-84
2022/07/16 00:50:34;;;;;;;4.57;4.18;;;16.90;87.40;;;;;;5010473;28;20193;-85
2022/07/16 00:53:01;;;;;;;4.70;4.30;;;16.90;87.30;;;;;;5014655;28;20233;-85
2022/07/16 00:55:27;;;;;;;6.13;4.15;;;16.80;87.60;;;;;;5014815;28;20186;-85
2022/07/16 00:57:54;;;;;;;4.30;4.00;;;16.90;88.50;;;;;;5008741;28;20267;-85
2022/07/16 01:00:20;;;;;;;4.32;3.92;;;16.50;87.30;;;;;;5014017;28;20183;-85
2022/07/16 01:02:45;;;;;;;4.87;4.37;;;16.70;88.30;;;;;;5018996;28;20659;-84
2022/07/16 01:05:11;;;;;;;4.27;3.97;;;16.40;88.30;;;;;;5008081;28;20186;-85
2022/07/16 01:07:37;;;;;;;5.50;4.40;;;16.60;89.30;;;;;;5015697;28;20271;-84
2022/07/16 01:10:04;;;;;;;5.57;4.50;;;16.60;89.20;;;;;;5011966;28;20719;-86
2022/07/16 01:12:30;;;;;;;4.53;4.05;;;16.50;89.40;;;;;;5039339;28;20175;-85
2022/07/16 01:14:57;;;;;;;5.20;4.80;;;16.50;89.80;;;;;;5019771;28;20277;-85
2022/07/16 01:17:23;;;;;;;4.18;3.78;;;16.50;89.70;;;;;;5003815;28;20198;-86
2022/07/16 01:19:50;;;;;;;3.90;3.60;;;16.30;90.40;;;;;;5006932;28;20225;-85
2022/07/16 01:22:20;;;;;;;4.15;3.75;;;16.20;90.00;;;;;;5010908;28;20178;-85
2022/07/16 01:24:45;;;;;;;4.35;4.05;;;16.10;90.00;;;;;;5024576;28;20181;-85
2022/07/16 01:27:11;;;;;;;4.50;4.10;;;16.50;91.00;;;;;;5018421;28;20198;-86
2022/07/16 01:29:36;;;;;;;6.93;3.73;;;16.50;91.70;;;;;;5018420;28;20221;-84
2022/07/16 01:32:02;;;;;;;5.63;4.70;;;16.40;91.00;;;;;;5021402;28;20183;-85
2022/07/16 01:34:28;;;;;;;5.10;4.10;;;16.10;90.70;;;;;;5028547;28;20179;-85
2022/07/16 01:36:55;;;;;;;4.10;3.80;;;16.10;91.10;;;;;;5017713;28;20214;-85
2022/07/16 01:39:22;;;;;;;5.47;4.55;;;16.30;91.20;;;;;;5019552;28;20193;-85
2022/07/16 01:41:58;;;;;;;5.45;3.50;;;16.10;91.50;;;;;;5025101;28;20214;-85
2022/07/16 01:44:26;;;;;;;5.70;4.28;;;15.40;91.00;;;;;;5026533;28;20186;-85
2022/07/16 01:46:53;;;;;;;4.78;4.25;;;15.70;91.20;;;;;;5023892;28;20229;-85
2022/07/16 01:49:19;;;;;;;4.50;4.13;;;16.20;91.60;;;;;;5016859;28;20278;-85
2022/07/16 01:51:45;;;;;;;4.43;4.03;;;16.00;91.60;;;;;;5015756;28;20225;-85
2022/07/16 01:54:11;;;;;;;6.53;5.60;;;15.80;91.90;;;;;;5024395;28;20189;-85
2022/07/16 01:56:36;;;;;;;4.88;4.47;;;16.00;91.70;;;;;;5031755;28;20289;-86
2022/07/16 01:59:02;;;;;;;4.10;3.80;;;16.10;92.10;;;;;;5015088;28;20286;-85
2022/07/16 02:01:28;;;;;;;4.50;4.13;;;15.70;91.60;;;;;;5020980;28;20199;-86
2022/07/16 02:03:54;;;;;;;4.63;4.23;;;15.70;91.90;;;;;;5016385;28;21036;-85
2022/07/16 02:06:20;;;;;;;4.50;4.10;;;16.00;92.40;;;;;;5011721;28;20472;-85
2022/07/16 02:08:45;;;;;;;4.70;4.30;;;15.70;92.00;;;;;;5022824;28;20651;-85
2022/07/16 02:11:11;;;;;;;4.60;4.20;;;15.40;92.00;;;;;;5018309;28;20176;-85
2022/07/16 02:13:36;;;;;;;4.70;4.30;;;15.40;92.10;;;;;;5014761;28;20560;-85
2022/07/16 02:16:02;;;;;;;4.43;4.03;;;15.50;92.30;;;;;;5015863;28;20240;-85
2022/07/16 02:18:27;;;;;;;5.00;4.23;;;15.90;92.60;;;;;;5016733;28;20194;-85
2022/07/16 02:20:53;;;;;;;4.87;4.47;;;15.70;92.10;;;;;;5017515;28;20602;-84
2022/07/16 02:23:19;;;;;;;4.57;4.17;;;15.90;92.30;;;;;;5038693;28;20178;-86
2022/07/16 02:25:44;;;;;;;4.17;3.77;;;15.70;92.40;;;;;;5007212;28;20616;-85
2022/07/16 02:28:10;;;;;;;4.40;4.00;;;15.50;93.20;;;;;;5021870;28;20218;-85
2022/07/16 02:30:46;;;;;;;4.20;3.80;;;15.40;93.10;;;;;;5029186;28;20222;-85
2022/07/16 02:33:14;;;;;;;4.80;4.40;;;15.40;92.90;;;;;;5033231;28;20452;-85
2022/07/16 02:35:40;;;;;;;4.57;4.18;;;15.60;93.30;;;;;;5013339;28;20195;-84
2022/07/16 02:38:07;;;;;;;4.60;4.20;;;15.30;92.80;;;;;;5016459;28;20207;-84
2022/07/16 02:40:34;;;;;;;5.75;4.40;;;15.40;93.00;;;;;;5016368;28;20187;-85
2022/07/16 02:43:02;;;;;;;4.57;4.20;;;15.40;93.20;;;;;;5012895;28;20217;-85
2022/07/16 02:45:27;;;;;;;4.70;3.88;;;15.20;93.50;;;;;;5012797;28;20199;-85
2022/07/16 02:47:53;;;;;;;4.73;4.37;;;15.10;93.20;;;;;;5019902;28;20206;-87
2022/07/16 02:50:19;;;;;;;4.80;4.40;;;15.00;93.40;;;;;;5012613;28;20231;-85
2022/07/16 02:52:45;;;;;;;4.70;4.30;;;15.20;93.60;;;;;;5014854;28;20245;-84
2022/07/16 02:55:11;;;;;;;4.43;4.03;;;15.30;93.60;;;;;;5018357;28;20643;-86
2022/07/16 02:57:36;;;;;;;4.63;4.10;;;15.10;93.60;;;;;;5019641;28;20453;-85
2022/07/16 03:00:04;;;;;;;4.60;4.20;;;15.40;93.60;;;;;;5011005;28;20201;-86
2022/07/16 03:02:30;;;;;;;4.68;4.20;;;15.10;93.70;;;;;;5015743;28;20179;-86
2022/07/16 03:04:55;;;;;;;4.50;4.10;;;15.10;93.70;;;;;;5008177;28;20213;-84
2022/07/16 03:07:21;;;;;;;4.43;4.10;;;15.00;93.90;;;;;;5019383;28;20202;-86
2022/07/16 03:09:47;;;;;;;4.73;4.33;;;15.30;94.10;;;;;;5021455;28;20183;-85
2022/07/16 03:12:12;;;;;;;4.63;4.23;;;14.90;94.00;;;;;;5031113;28;20178;-86
2022/07/16 03:14:38;;;;;;;4.37;4.03;;;14.80;93.90;;;;;;5013838;28;20189;-86
2022/07/16 03:17:03;;;;;;;4.40;4.10;;;15.70;94.60;;;;;;5006618;28;20745;-86
2022/07/16 03:19:29;;;;;;;6.33;4.13;;;15.80;94.60;;;;;;5002391;28;20974;-86
2022/07/16 03:21:54;;;;;;;5.50;4.30;;;14.80;94.40;;;;;;5014630;28;20588;-86
2022/07/16 03:24:20;;;;;;;4.37;3.97;;;14.90;94.40;;;;;;5027500;28;20210;-86
2022/07/16 03:26:45;;;;;;;4.00;3.70;;;14.80;95.00;;;;;;5014443;28;20569;-86
2022/07/16 03:29:11;;;;;;;6.07;4.30;;;15.00;95.50;;;;;;5017330;28;20198;-86
2022/07/16 03:31:36;;;;;;;4.83;4.50;;;14.70;95.00;;;;;;5024450;28;20178;-86
2022/07/16 03:34:02;;;;;;;6.43;5.73;;;15.10;94.70;;;;;;5016510;28;20211;-86
2022/07/16 03:36:28;;;;;;;4.60;4.07;;;15.10;94.90;;;;;;5014096;28;20221;-85
2022/07/16 03:39:01;;;;;;;4.30;3.97;;;14.80;94.70;;;;;;5011913;28;20210;-87
2022/07/16 03:41:27;;;;;;;4.10;3.80;;;15.10;94.60;;;;;;5011026;28;20270;-86
2022/07/16 03:43:52;;;;;;;4.50;4.20;;;14.50;94.50;;;;;;5016936;28;20178;-85
2022/07/16 03:46:18;;;;;;;5.90;4.60;;;14.70;94.60;;;;;;5008660;28;20200;-87
2022/07/16 03:48:44;;;;;;;4.70;4.30;;;14.40;94.80;;;;;;5011324;28;20240;-87
2022/07/16 03:51:10;;;;;;;5.00;4.60;;;14.70;95.20;;;;;;5010262;28;20516;-84
2022/07/16 03:53:37;;;;;;;4.63;4.22;;;14.70;95.20;;;;;;5031940;28;20533;-86
2022/07/16 03:56:03;;;;;;;4.78;4.07;;;14.60;94.80;;;;;;5012759;28;20545;-84
2022/07/16 03:58:29;;;;;;;4.80;4.30;;;14.60;95.10;;;;;;5008649;28;20199;-85
2022/07/16 04:00:55;;;;;;;4.93;4.55;;;14.90;95.40;;;;;;5013596;28;20175;-86
2022/07/16 04:03:21;;;;;;;5.30;4.30;;;14.60;95.30;;;;;;5010757;28;20202;-85
2022/07/16 04:05:46;;;;;;;4.03;3.77;;;14.90;95.80;;;;;;5007831;28;20456;-86
2022/07/16 04:08:12;;;;;;;6.47;4.50;;;15.30;95.80;;;;;;5006319;28;20897;-78
2022/07/16 04:10:38;;;;;;;4.40;4.00;;;14.40;95.40;;;;;;5011135;28;20214;-76
2022/07/16 04:13:04;;;;;;;4.17;3.83;;;14.40;95.20;;;;;;5023731;28;20179;-78
2022/07/16 04:15:29;;;;;;;4.60;4.20;;;14.30;95.20;;;;;;5004748;28;20282;-77
2022/07/16 04:17:55;;;;;;;5.07;4.50;;;14.70;95.70;;;;;;5007044;28;20348;-77
2022/07/16 04:20:21;;;;;;;4.60;4.30;;;14.50;95.40;;;;;;5008720;28;20179;-78
2022/07/16 04:22:46;;;;;;;4.70;4.20;;;14.80;95.60;;;;;;5014916;28;20185;-77
2022/07/16 04:25:13;;;;;;;4.97;4.53;;;14.40;95.70;;;;;;5011032;28;20257;-78
2022/07/16 04:27:39;;;;;;;4.40;4.00;;;14.30;96.20;;;;;;5016225;28;20753;-78
2022/07/16 04:30:06;;;;;;;4.38;3.97;;;14.60;95.90;;;;;;5009924;28;20246;-77
2022/07/16 04:32:32;;;;;;;7.70;4.45;;;14.70;95.60;;;;;;5008173;28;20201;-77
2022/07/16 04:34:57;;;;;;;5.60;4.10;;;14.60;95.40;;;;;;5005459;28;20191;-77
2022/07/16 04:37:24;;;;;;;4.30;3.90;;;16.10;95.90;;;;;;5010703;28;20253;-78
2022/07/16 04:39:49;;;;;;;4.80;4.20;;;14.80;95.00;;;;;;5011547;28;20210;-76
2022/07/16 04:42:15;;;;;;;4.13;3.60;;;15.00;94.90;;;;;;5007106;28;20258;-76
2022/07/16 04:44:40;;;;;;;6.10;3.53;;;15.00;94.80;;;;;;5006857;28;20184;-76
2022/07/16 04:47:06;;;;;;;4.20;3.77;;;14.90;94.90;;;;;;5004816;28;20206;-77
2022/07/16 04:49:31;;;;;;;4.10;3.80;;;14.90;94.60;;;;;;5007947;28;20179;-77
2022/07/16 04:51:57;;;;;;;3.90;3.60;;;14.90;94.60;;;;;;5008870;28;20210;-77
2022/07/16 04:54:22;;;;;;;4.13;3.70;;;15.00;94.30;;;;;;5006266;28;20179;-77
2022/07/16 04:56:48;;;;;;;4.07;3.70;;;15.00;94.30;;;;;;5008127;28;20222;-77
2022/07/16 04:59:13;;;;;;;4.50;4.10;;;15.50;94.40;;;;;;5010171;28;20194;-76
2022/07/16 05:01:39;;;;;;;4.40;4.00;;;15.20;94.10;;;;;;5005152;28;20174;-76
2022/07/16 05:04:04;;;;;;;5.43;3.90;;;15.00;94.40;;;;;;5006482;28;20615;-77
2022/07/16 05:06:30;;;;;;;4.37;4.00;;;15.20;94.20;;;;;;5006772;28;20202;-76
2022/07/16 05:08:56;;;;;;;5.27;3.90;;;15.30;94.40;;;;;;5011505;28;20659;-77
2022/07/16 05:11:22;;;;;;;4.03;3.72;;;15.20;93.30;;;;;;5025270;28;20210;-77
2022/07/16 05:13:50;;;;;;;5.30;4.80;;;15.50;93.10;;;;;;5008198;28;20194;-76
2022/07/16 05:16:15;;;;;;;4.22;3.50;;;16.10;93.00;;;;;;5001994;28;20961;-76
2022/07/16 05:18:41;;;;;;;3.90;3.60;;;16.00;92.80;;;;;;5003290;28;20218;-76
2022/07/16 05:21:07;;;;;;;3.90;3.37;;;15.80;92.40;;;;;;5004286;28;20262;-76
2022/07/16 05:23:34;;;;;;;3.80;3.33;;;16.30;92.90;;;;;;5010293;28;20527;-76
2022/07/16 05:25:59;;;;;;;4.13;3.72;;;15.90;92.50;;;;;;5006459;28;20187;-76
2022/07/16 05:28:25;;;;;;;4.43;3.70;;;16.30;92.90;;;;;;5013725;28;20182;-76
2022/07/16 05:30:50;;;;;;;3.97;3.47;;;16.50;92.60;;;;;;5008092;28;20195;-77
2022/07/16 05:33:16;;;;;;;4.13;3.83;;;16.80;91.80;;;;;;5007738;28;20196;-77
2022/07/16 05:35:41;;;;;;;4.87;4.23;;;16.70;91.30;;;;;;5001883;28;20685;-77
2022/07/16 05:38:07;;;;;;;4.63;3.80;;;16.90;91.10;;;;;;5007784;28;20324;-77
2022/07/16 05:40:32;;;;;;;9.13;3.80;;;17.00;91.10;;;;;;4999553;28;20214;-77
2022/07/16 05:42:58;;;;;;;5.10;3.90;;;16.90;90.80;;;;;;5006437;28;20716;-75
2022/07/16 05:45:23;;;;;;;3.90;3.60;;;16.80;90.50;;;;;;5008005;28;20216;-76
2022/07/16 05:47:49;;;;;;;3.93;3.50;;;16.70;90.30;;;;;;5014115;28;20237;-82
2022/07/16 05:50:14;;;;;;;3.80;3.50;;;17.30;90.30;;;;;;5006667;28;20214;-82
2022/07/16 05:52:40;;;;;;;4.30;3.57;;;16.90;89.80;;;;;;5005551;28;20669;-82
2022/07/16 05:55:06;;;;;;;3.70;3.13;;;17.00;89.00;;;;;;5008525;28;20187;-82
2022/07/16 05:57:31;;;;;;;3.45;3.15;;;17.20;88.30;;;;;;5003636;28;20214;-82
2022/07/16 05:59:57;;;;;;;4.03;3.10;;;17.40;86.50;;;;;;5007520;28;20202;-83
2022/07/16 06:02:22;;;;;;;3.63;3.33;;;17.70;86.00;;;;;;5009427;28;20183;-83
2022/07/16 06:04:48;;;;;;;4.40;3.10;;;17.40;85.00;;;;;;5024017;28;20621;-83
2022/07/16 06:07:13;;;;;;;5.70;5.07;;;17.90;83.30;;;;;;5016463;28;20198;-82
2022/07/16 06:09:39;;;;;;;3.83;3.23;;;18.10;82.80;;;;;;5009276;28;20187;-83
2022/07/16 06:12:05;;;;;;;5.43;3.87;;;18.30;81.50;;;;;;5023642;28;20187;-83
2022/07/16 06:14:30;;;;;;;3.73;3.33;;;18.70;80.70;;;;;;5012997;28;20635;-83
2022/07/16 06:16:56;;;;;;;3.73;3.43;;;19.00;79.90;;;;;;5014363;28;20230;-83
2022/07/16 06:19:21;;;;;;;3.63;2.90;;;19.10;79.00;;;;;;5025398;28;20221;-83
2022/07/16 06:21:47;;;;;;;3.83;3.30;;;19.20;77.90;;;;;;5009787;28;20664;-83
2022/07/16 06:24:12;;;;;;;3.40;3.10;;;19.20;77.20;;;;;;5023499;28;20650;-83
2022/07/16 06:26:46;;;;;;;3.63;3.33;;;18.40;75.50;;;;;;5021364;28;20198;-83
2022/07/16 06:29:15;;;;;;;3.85;3.55;;;18.80;75.00;;;;;;5040534;28;20550;-83
2022/07/16 06:31:41;;;;;;;3.55;3.25;;;18.90;76.20;;;;;;5007280;28;20218;-83
2022/07/16 06:34:07;;;;;;;4.38;3.60;;;19.50;76.20;;;;;;5011094;28;20234;-83
2022/07/16 06:36:32;;;;;;;4.93;3.30;;;19.70;75.40;;;;;;5006491;28;20257;-82
2022/07/16 06:38:58;;;;;;;3.87;3.50;;;19.70;74.00;;;;;;5012531;28;20210;-83
2022/07/16 06:41:25;;;;;;;3.60;3.30;;;19.60;73.90;;;;;;5019842;28;20203;-84
2022/07/16 06:43:51;;;;;;;4.28;3.63;;;19.30;74.60;;;;;;5011103;28;20651;-84
2022/07/16 06:46:16;;;;;;;3.57;3.20;;;20.00;73.90;;;;;;5009905;28;20213;-83
2022/07/16 06:48:42;;;;;;;3.87;3.57;;;20.00;72.20;;;;;;5010827;28;20182;-84
2022/07/16 06:51:07;;;;;;;3.10;2.80;;;19.80;71.60;;;;;;5013441;28;20415;-83
2022/07/16 06:53:37;;;;;;;4.50;2.97;;;20.20;71.00;;;;;;5016199;28;20213;-84
2022/07/16 06:56:03;;;;;;;4.40;3.50;;;20.50;70.60;;;;;;5004419;28;20194;-83
2022/07/16 06:58:29;;;;;;;4.80;3.20;;;20.30;70.30;;;;;;5012363;28;20238;-83
2022/07/16 07:00:55;;;;;;;5.67;3.43;;;20.50;68.90;;;;;;5004121;28;20211;-83
2022/07/16 07:03:20;;;;;;;7.17;3.90;;;21.20;67.80;;;;;;5011990;28;20627;-82
2022/07/16 07:05:46;;;;;;;4.83;3.47;;;20.90;67.40;;;;;;5008578;28;20287;-82
2022/07/16 07:08:11;;;;;;;4.13;3.20;;;21.70;68.30;;;;;;5010259;28;20210;-83
2022/07/16 07:10:37;;;;;;;3.77;3.47;;;22.40;66.80;;;;;;5010385;28;20190;-83
2022/07/16 07:13:02;;;;;;;4.00;3.57;;;24.50;60.10;;;;;;5026358;28;20192;-83
2022/07/16 07:15:29;;;;;;;3.87;3.57;;;27.40;54.40;;;;;;5010582;28;20210;-84
2022/07/16 07:17:54;;;;;;;4.17;3.70;;;30.50;47.60;;;;;;5029024;28;20203;-85
2022/07/16 07:20:20;;;;;;;3.73;3.43;;;32.10;42.00;;;;;;5007360;28;20449;-82
2022/07/16 07:22:45;;;;;;;7.03;4.10;;;33.40;40.80;;;;;;5013270;28;20186;-81
2022/07/16 07:25:11;;;;;;;5.93;4.13;;;34.30;36.30;;;;;;5011633;28;20526;-82
2022/07/16 07:27:36;;;;;;;3.90;3.60;;;34.70;35.80;;;;;;5006652;28;20206;-82
2022/07/16 07:30:04;;;;;;;4.63;4.23;;;35.70;34.30;;;;;;5009522;28;20187;-82
2022/07/16 07:32:29;;;;;;;5.23;4.73;;;36.10;33.20;;;;;;5014894;28;20182;-82
2022/07/16 07:34:55;;;;;;;4.20;3.90;;;36.60;32.60;;;;;;5008074;28;20816;-83
2022/07/16 07:37:20;;;;;;;5.47;3.80;;;37.30;31.80;;;;;;5009577;28;20276;-82
2022/07/16 07:39:46;;;;;;;4.87;3.90;;;36.50;31.20;;;;;;5018839;28;20690;-83
2022/07/16 07:42:12;;;;;;;6.27;3.83;;;38.00;30.50;;;;;;5020070;28;20221;-83
2022/07/16 07:44:38;;;;;;;5.00;3.17;;;39.30;29.30;;;;;;5017794;28;21040;-83
2022/07/16 07:47:04;;;;;;;3.93;3.60;;;39.00;28.30;;;;;;5014775;28;20516;-83
2022/07/16 07:49:30;;;;;;;4.00;3.63;;;37.50;28.20;;;;;;5010595;28;20205;-82
2022/07/16 07:51:55;;;;;;;3.30;3.00;;;36.40;29.00;;;;;;5009232;28;20351;-83
2022/07/16 07:54:21;;;;;;;3.50;3.20;;;37.80;28.50;;;;;;5028229;28;20191;-83
2022/07/16 07:56:48;;;;;;;4.33;3.97;;;38.10;28.40;;;;;;5009065;28;20619;-82
2022/07/16 07:59:13;;;;;;;4.97;3.80;;;37.90;28.40;;;;;;5007427;28;20210;-83
2022/07/16 08:01:39;;;;;;;5.43;4.93;;;38.30;28.10;;;;;;5008441;28;20495;-83
2022/07/16 08:04:04;;;;;;;7.33;3.00;;;39.70;28.00;;;;;;5009862;28;20201;-83
2022/07/16 08:06:30;;;;;;;5.07;3.30;;;39.40;26.90;;;;;;5005792;28;20203;-83
2022/07/16 08:08:55;;;;;;;4.40;3.93;;;40.50;26.30;;;;;;5008802;28;20190;-83
2022/07/16 08:11:21;;;;;;;5.27;3.60;;;41.30;25.70;;;;;;5003629;28;20252;-83
2022/07/16 08:13:47;;;;;;;4.50;3.07;;;42.40;25.20;;;;;;5007118;28;20187;-83
2022/07/16 08:16:12;;;;;;;2.77;2.53;;;40.60;24.60;;;;;;5006129;28;20226;-83
2022/07/16 08:18:38;;;;;;;2.77;2.57;;;40.60;24.50;;;;;;5005790;28;20695;-84
2022/07/16 08:21:03;;;;;;;2.83;2.53;;;40.70;24.20;;;;;;5003893;28;20191;-84
2022/07/16 08:26:13;;;;;;;3.47;2.77;;;40.10;24.80;;;;;;5007436;28;20213;-83
2022/07/16 08:28:41;;;;;;;3.03;2.37;;;41.20;24.20;;;;;;5002488;28;20458;-83
2022/07/16 08:31:07;;;;;;;3.63;2.80;;;36.90;24.90;;;;;;5022964;28;20194;-84
2022/07/16 08:33:33;;;;;;;4.07;2.60;;;37.90;26.30;;;;;;5009962;28;20442;-84
2022/07/16 08:36:00;;;;;;;3.67;2.77;;;39.30;25.10;;;;;;5007846;28;20664;-84
2022/07/16 08:38:26;;;;;;;2.97;2.77;;;40.30;24.40;;;;;;5009692;28;20578;-83
2022/07/16 08:40:55;;;;;;;3.43;2.63;;;39.40;24.90;;;;;;5008613;28;20441;-83
2022/07/16 08:43:21;;;;;;;3.70;2.87;;;40.00;25.00;;;;;;5010188;28;21008;-83
2022/07/16 08:45:47;;;;;;;2.50;2.30;;;39.90;24.60;;;;;;5010645;28;20520;-83
2022/07/16 08:48:13;;;;;;;2.90;2.60;;;39.80;23.90;;;;;;5006100;28;20206;-83
2022/07/16 08:50:39;;;;;;;2.50;2.07;;;37.10;25.10;;;;;;5005692;28;20453;-83
2022/07/16 08:53:07;;;;;;;3.00;2.07;;;37.50;25.50;;;;;;5011864;28;20193;-83
2022/07/16 08:55:36;;;;;;;2.40;2.20;;;38.30;25.60;;;;;;5007335;28;20568;-83
2022/07/16 08:58:02;;;;;;;2.07;1.87;;;37.80;25.60;;;;;;5004663;28;20472;-83
2022/07/16 09:00:28;;;;;;;2.83;2.60;;;38.20;24.70;;;;;;5006940;28;20442;-82
2022/07/16 09:02:54;;;;;;;2.47;2.10;;;36.30;25.40;;;;;;5003912;28;20457;-81
2022/07/16 09:05:19;;;;;;;2.43;2.30;;;36.40;26.30;;;;;;5001128;28;20204;-82
2022/07/16 09:07:45;;;;;;;2.90;2.70;;;36.60;25.60;;;;;;5008188;28;20818;-83
2022/07/16 09:10:12;;;;;;;4.43;2.50;;;36.80;25.80;;;;;;5011394;28;20182;-83
2022/07/16 09:12:46;;;;;;;3.93;2.50;;;35.90;26.30;;;;;;5002370;28;20969;-83
2022/07/16 09:15:35;;;;;;;2.27;2.00;;;36.20;26.50;;;;;;5004855;28;20461;-80
2022/07/16 09:18:21;;;;;;;3.07;2.80;;;36.00;26.30;;;;;;5012097;28;20489;-81
2022/07/16 09:20:58;;;;;;;3.77;2.73;;;36.40;26.60;;;;;;5003434;28;20445;-80
2022/07/16 09:23:38;;;;;;;3.00;1.93;;;37.80;25.40;;;;;;5012447;28;20428;-80
2022/07/16 09:26:09;;;;;;;2.13;1.90;;;36.60;25.30;;;;;;5009163;28;20452;-82
2022/07/16 09:28:55;;;;;;;1.80;1.60;;;35.20;25.70;;;;;;5008315;28;20957;-82
2022/07/16 09:31:35;;;;;;;2.47;2.27;;;36.40;25.70;;;;;;5005272;28;20476;-81
2022/07/16 09:34:10;;;;;;;2.87;1.90;;;37.70;25.20;;;;;;5008095;28;20445;-80
2022/07/16 09:36:38;;;;;;;2.83;2.10;;;37.70;24.60;;;;;;5005943;28;20876;-81
2022/07/16 09:39:05;;;;;;;2.07;1.80;;;36.90;25.00;;;;;;5007776;28;20553;-81
2022/07/16 09:41:42;;;;;;;2.40;2.20;;;37.60;25.00;;;;;;5005940;28;20454;-81
2022/07/16 09:44:23;;;;;;;2.50;2.10;;;38.30;24.70;;;;;;5009058;28;20765;-82
2022/07/16 09:47:00;;;;;;;3.10;1.93;;;38.80;24.30;;;;;;5011671;28;20453;-81
2022/07/16 09:49:27;;;;;;;3.30;1.93;;;38.70;24.30;;;;;;5009493;28;20461;-81
2022/07/16 09:51:53;;;;;;;2.70;2.10;;;38.30;24.40;;;;;;5013126;28;20433;-81
2022/07/16 09:54:34;;;;;;;3.73;2.10;;;37.80;24.50;;;;;;5013696;28;20454;-81
2022/07/16 09:57:17;;;;;;;3.37;2.07;;;38.60;24.60;;;;;;5012081;28;20475;-81
2022/07/16 09:59:45;;;;;;;2.83;2.23;;;38.10;24.70;;;;;;5007880;28;20465;-81
2022/07/16 10:02:11;;;;;;;2.10;2.00;;;36.90;24.90;;;;;;5014164;28;20456;-81
2022/07/16 10:04:37;;;;;;;2.33;2.13;;;36.60;25.90;;;;;;5012204;28;20572;-81
2022/07/16 10:07:02;;;;;;;2.40;2.20;;;36.40;25.70;;;;;;5014357;28;20463;-81
2022/07/16 10:09:29;;;;;;;2.67;1.90;;;37.40;25.30;;;;;;5014699;28;20449;-81
2022/07/16 10:11:57;;;;;;;2.73;1.83;;;36.30;25.80;;;;;;5007521;28;20710;-81
2022/07/16 10:14:24;;;;;;;2.57;2.37;;;37.50;25.30;;;;;;5012402;28;20536;-81
2022/07/16 10:16:49;;;;;;;4.23;2.30;;;37.00;25.30;;;;;;5012107;28;20513;-81
2022/07/16 10:19:15;;;;;;;2.67;2.20;;;36.50;25.80;;;;;;5011428;28;20511;-81
2022/07/16 10:22:01;;;;;;;2.73;2.07;;;37.00;25.60;;;;;;5008733;28;20541;-81
2022/07/16 10:24:46;;;;;;;5.63;3.70;;;37.60;25.70;;;;;;5017555;28;20178;-82
2022/07/16 10:27:30;;;;;;;4.30;2.37;;;36.40;25.90;;;;;;5011716;28;20476;-81
2022/07/16 10:30:18;;;;;;;3.70;2.80;;;35.50;26.80;;;;;;5008197;28;20647;-81
2022/07/16 10:32:59;;;;;;;3.83;3.50;;;35.80;26.80;;;;;;5017227;28;20494;-82
2022/07/16 10:35:31;;;;;;;2.27;2.07;;;34.60;27.10;;;;;;5021486;28;20527;-81
2022/07/16 10:38:22;;;;;;;4.53;2.43;;;33.00;28.70;;;;;;5011611;28;20513;-80
2022/07/16 10:41:15;;;;;;;3.03;2.73;;;31.60;29.50;;;;;;5010630;28;20433;-80
2022/07/16 10:43:42;;;;;;;2.10;1.90;;;30.10;30.90;;;;;;5007992;28;20476;-81
2022/07/16 10:46:09;;;;;;;3.83;1.93;;;29.80;31.60;;;;;;5015045;28;20480;-80
2022/07/16 10:48:38;;;;;;;3.40;2.30;;;31.00;31.40;;;;;;5009436;28;20546;-80
2022/07/16 10:51:15;;;;;;;2.33;2.13;;;30.90;30.70;;;;;;5021962;28;20800;-82
2022/07/16 10:53:56;;;;;;;2.60;2.20;;;31.50;29.60;;;;;;5029459;28;20538;-81
2022/07/16 10:56:38;;;;;;;2.10;1.70;;;32.30;29.90;;;;;;5018778;28;20522;-81
2022/07/16 10:59:08;;;;;;;2.43;2.20;;;32.60;29.90;;;;;;5009215;28;20464;-80
2022/07/16 11:01:35;;;;;;;3.40;2.20;;;31.90;29.50;;;;;;5015034;28;20445;-81
2022/07/16 11:04:02;;;;;;;2.30;2.07;;;31.90;29.80;;;;;;5014042;28;20453;-84
2022/07/16 11:06:28;;;;;;;3.70;2.30;;;32.40;29.50;;;;;;5009311;28;20489;-83
2022/07/16 11:08:59;;;;;;;2.37;2.17;;;33.40;28.90;;;;;;5010911;28;20492;-83
2022/07/16 11:11:33;;;;;;;3.20;2.20;;;34.70;28.80;;;;;;5006296;28;20453;-83
2022/07/16 11:13:59;;;;;;;3.87;3.13;;;34.20;27.60;;;;;;5029878;28;20453;-83
2022/07/16 11:16:25;;;;;;;2.30;2.17;;;34.80;27.50;;;;;;5013513;28;20531;-82
2022/07/16 11:18:50;;;;;;;2.70;2.47;;;35.10;26.60;;;;;;5011172;28;20462;-83
2022/07/16 11:21:16;;;;;;;2.50;1.87;;;35.50;26.10;;;;;;5014130;28;20187;-83
2022/07/16 11:24:00;;;;;;;5.73;2.47;;;35.40;27.30;;;;;;5018884;28;20236;-83
2022/07/16 11:26:27;;;;;;;2.90;2.70;;;34.50;26.80;;;;;;5017454;28;20544;-81
2022/07/16 11:28:58;;;;;;;2.40;2.20;;;34.50;27.60;;;;;;5012439;28;20449;-82
2022/07/16 11:31:35;;;;;;;2.30;2.10;;;34.90;26.80;;;;;;5003724;28;20438;-82
2022/07/16 11:34:09;;;;;;;2.23;2.03;;;35.80;26.50;;;;;;5008561;28;20445;-84
2022/07/16 11:36:40;;;;;;;1.97;1.57;;;35.60;26.00;;;;;;5013548;28;20465;-82
2022/07/16 11:39:18;;;;;;;2.00;1.80;;;34.90;26.00;;;;;;5013813;28;20472;-81
2022/07/16 11:41:46;;;;;;;4.80;2.47;;;33.70;27.10;;;;;;5009985;28;20495;-83
2022/07/16 11:44:19;;;;;;;3.13;2.10;;;34.30;26.90;;;;;;5020512;28;20940;-79
2022/07/16 11:46:46;;;;;;;2.00;1.90;;;34.20;26.90;;;;;;5016691;28;20454;-79
2022/07/16 11:49:40;;;;;;;2.70;1.90;;;33.90;26.90;;;;;;5010620;28;20441;-79
2022/07/16 11:52:08;;;;;;;3.03;1.90;;;33.70;27.30;;;;;;5013111;28;20498;-79
2022/07/16 11:54:40;;;;;;;1.63;1.53;;;32.00;27.80;;;;;;5014996;28;20517;-79
2022/07/16 11:57:10;;;;;;;3.30;2.20;;;32.60;28.50;;;;;;5011837;28;20456;-79
2022/07/16 11:59:47;;;;;;;2.50;1.50;;;31.90;28.90;;;;;;5010586;28;20582;-79
2022/07/16 12:02:16;;;;;;;2.13;1.77;;;31.70;28.60;;;;;;5018947;28;20521;-79
2022/07/16 12:04:43;;;;;;;2.57;1.83;;;30.70;29.30;;;;;;5007310;28;20435;-79
2022/07/16 12:07:16;;;;;;;2.40;2.20;;;29.90;30.20;;;;;;5012311;28;20496;-79
2022/07/16 12:09:46;;;;;;;1.90;1.80;;;29.40;31.30;;;;;;5011104;28;20737;-79
2022/07/16 12:12:30;;;;;;;1.63;1.53;;;29.00;31.70;;;;;;5012916;28;20928;-79
2022/07/16 12:15:00;;;;;;;1.80;1.70;;;28.80;32.10;;;;;;5011595;28;20515;-79
2022/07/16 12:17:34;;;;;;;2.77;1.80;;;28.80;32.30;;;;;;4999993;28;20464;-81
2022/07/16 12:20:19;;;;;;;2.60;2.00;;;28.70;33.30;;;;;;5017510;28;20498;-79
2022/07/16 12:22:49;;;;;;;1.97;1.80;;;28.20;33.80;;;;;;5018414;28;20422;-79
2022/07/16 12:25:33;;;;;;;3.03;2.10;;;28.00;33.80;;;;;;5006700;28;20939;-78
2022/07/16 12:28:09;;;;;;;2.13;1.90;;;27.80;34.50;;;;;;5013390;28;20494;-78
2022/07/16 12:30:41;;;;;;;2.63;1.90;;;27.70;34.60;;;;;;5004028;28;20442;-78
2022/07/16 12:33:15;;;;;;;2.30;2.10;;;27.50;35.70;;;;;;5009534;28;20430;-78
2022/07/16 12:35:58;;;;;;;4.30;3.83;;;27.60;35.80;;;;;;5013342;28;20441;-78
2022/07/16 12:41:27;;;;;;;4.03;2.23;;;27.10;36.80;;;;;;5007941;28;20532;-79
2022/07/16 12:44:02;;;;;;;1.70;1.60;;;27.60;37.50;;;;;;5001782;28;20434;-79
2022/07/16 12:46:31;;;;;;;2.70;2.03;;;27.20;36.50;;;;;;5017594;28;20933;-78
2022/07/16 12:48:58;;;;;;;2.23;2.03;;;27.30;36.90;;;;;;5009899;28;20434;-79
2022/07/16 12:51:27;;;;;;;1.50;1.40;;;27.30;37.10;;;;;;5007196;28;20496;-79
2022/07/16 12:53:55;;;;;;;2.10;1.90;;;28.50;37.80;;;;;;5011953;28;20529;-78
2022/07/16 12:59:07;;;;;;;3.80;1.70;;;26.90;37.40;;;;;;5007762;28;20838;-78
2022/07/16 13:01:32;;;;;;;2.00;1.90;;;27.20;37.60;;;;;;5011648;28;20466;-79
2022/07/16 13:03:59;;;;;;;1.90;1.57;;;28.10;38.10;;;;;;5010760;28;20469;-79